createdAt,value
2022-10-05T00:01:24.297Z,102187.95
2022-10-05T00:04:18.716Z,102185.92
2022-10-05T00:07:14.951Z,102188.23
2022-10-05T00:10:15.840Z,102186.85
2022-10-05T00:13:07.634Z,102193.52
2022-10-05T00:16:06.976Z,102194.30
2022-10-05T00:18:57.120Z,102195.89
2022-10-05T00:21:47.159Z,102196.59
2022-10-05T00:24:37.440Z,102194.27
2022-10-05T00:27:32.873Z,102194.22
2022-10-05T00:30:24.886Z,102188.45
2022-10-05T00:33:15.181Z,102190.27
2022-10-05T00:36:07.729Z,102190.64
2022-10-05T00:38:58.640Z,102191.60
2022-10-05T00:42:03.176Z,102194.02
2022-10-05T00:44:57.576Z,102192.76
2022-10-05T00:47:58.778Z,102195.75
2022-10-05T00:51:05.257Z,102193.45
2022-10-05T00:54:12.617Z,102191.92
2022-10-05T00:57:20.288Z,102193.48
2022-10-05T01:00:14.507Z,102192.38
2022-10-05T01:03:15.548Z,102191.34
2022-10-05T01:06:14.062Z,102187.12
2022-10-05T01:09:15.360Z,102187.80
2022-10-05T01:12:15.309Z,102185.97
2022-10-05T01:15:10.446Z,102184.45
2022-10-05T01:18:07.014Z,102183.45
2022-10-05T01:21:04.667Z,102176.55
2022-10-05T01:24:27.962Z,102176.05
2022-10-05T01:27:38.265Z,102177.61
2022-10-05T01:30:31.562Z,102177.62
2022-10-05T01:33:31.850Z,102175.79
2022-10-05T01:36:29.820Z,102176.34
2022-10-05T01:39:26.249Z,102175.90
2022-10-05T01:42:29.967Z,102170.54
2022-10-05T01:45:29.969Z,102170.99
2022-10-05T01:48:27.671Z,102164.60
2022-10-05T01:51:28.805Z,102164.16
2022-10-05T01:54:32.016Z,102165.44
2022-10-05T01:57:35.871Z,102162.89
2022-10-05T02:00:26.611Z,102163.11
2022-10-05T02:03:23.470Z,102159.25
2022-10-05T02:06:18.900Z,102154.11
2022-10-05T02:09:16.352Z,102153.39
2022-10-05T02:12:13.278Z,102154.69
2022-10-05T02:15:13.897Z,102150.86
2022-10-05T02:18:11.597Z,102150.20
2022-10-05T02:21:04.277Z,102149.11
2022-10-05T02:23:59.903Z,102144.77
2022-10-05T02:26:52.581Z,102147.11
2022-10-05T02:29:48.279Z,102149.20
2022-10-05T02:32:42.606Z,102150.27
2022-10-05T02:35:33.600Z,102153.42
2022-10-05T02:38:32.558Z,102151.79
2022-10-05T02:41:34.570Z,102153.11
2022-10-05T02:44:32.446Z,102153.52
2022-10-05T02:47:29.890Z,102150.70
2022-10-05T02:50:27.283Z,102153.16
2022-10-05T02:53:27.338Z,102156.04
2022-10-05T02:56:27.486Z,102156.79
2022-10-05T02:59:24.625Z,102156.29
2022-10-05T03:02:20.618Z,102159.56
2022-10-05T03:05:19.921Z,102160.64
2022-10-05T03:08:16.918Z,102158.81
2022-10-05T03:11:16.035Z,102164.19
2022-10-05T03:14:14.710Z,102162.08
2022-10-05T03:17:14.067Z,102158.00
2022-10-05T03:20:18.903Z,102155.77
2022-10-05T03:23:15.582Z,102156.99
2022-10-05T03:26:19.942Z,102159.91
2022-10-05T03:29:20.414Z,102158.64
2022-10-05T03:32:19.949Z,102159.10
2022-10-05T03:35:16.284Z,102157.10
2022-10-05T03:38:15.137Z,102160.20
2022-10-05T03:41:13.786Z,102162.94
2022-10-05T03:44:19.773Z,102163.58
2022-10-05T03:47:15.697Z,102158.33
2022-10-05T03:50:24.820Z,102164.45
2022-10-05T03:53:20.609Z,102164.96
2022-10-05T03:56:17.609Z,102160.02
2022-10-05T03:59:16.230Z,102158.69
2022-10-05T04:02:13.867Z,102165.34
2022-10-05T04:05:07.546Z,102163.83
2022-10-05T04:08:01.114Z,102158.55
2022-10-05T04:10:53.566Z,102160.33
2022-10-05T04:13:53.025Z,102158.78
2022-10-05T04:16:46.396Z,102158.77
2022-10-05T04:19:41.969Z,102159.51
2022-10-05T04:22:38.650Z,102161.66
2022-10-05T04:25:33.526Z,102166.92
2022-10-05T04:28:32.142Z,102162.15
2022-10-05T04:31:36.973Z,102159.89
2022-10-05T04:34:51.016Z,102161.73
2022-10-05T04:37:49.764Z,102163.16
2022-10-05T04:41:02.807Z,102163.69
2022-10-05T04:44:10.137Z,102163.48
2022-10-05T04:47:18.428Z,102162.66
2022-10-05T04:50:29.702Z,102161.63
2022-10-05T04:53:34.846Z,102163.17
2022-10-05T04:56:34.614Z,102164.36
2022-10-05T04:59:50.724Z,102163.33
2022-10-05T05:03:02.910Z,102164.42
2022-10-05T05:06:16.960Z,102167.84
2022-10-05T05:09:25.018Z,102170.84
2022-10-05T05:12:26.586Z,102164.56
2022-10-05T05:15:29.658Z,102169.36
2022-10-05T05:18:54.638Z,102170.21
2022-10-05T05:21:53.227Z,102172.81
2022-10-05T05:24:57.767Z,102174.73
2022-10-05T05:27:54.824Z,102176.66
2022-10-05T05:30:49.874Z,102177.26
2022-10-05T05:33:49.101Z,102179.58
2022-10-05T05:36:55.888Z,102180.98
2022-10-05T05:39:57.643Z,102183.36
2022-10-05T05:42:55.784Z,102191.70
2022-10-05T05:45:53.642Z,102196.08
2022-10-05T05:48:45.746Z,102200.53
2022-10-05T05:51:40.523Z,102204.66
2022-10-05T05:54:37.774Z,102204.88
2022-10-05T05:57:33.512Z,102213.30
2022-10-05T06:00:26.034Z,102218.35
2022-10-05T06:03:24.162Z,102220.04
2022-10-05T06:06:17.029Z,102224.55
2022-10-05T06:09:22.422Z,102225.40
2022-10-05T06:12:23.744Z,102224.61
2022-10-05T06:15:24.326Z,102222.14
2022-10-05T06:18:17.061Z,102224.44
2022-10-05T06:21:14.222Z,102226.81
2022-10-05T06:24:10.379Z,102230.27
2022-10-05T06:27:26.014Z,102233.67
2022-10-05T06:30:18.760Z,102242.42
2022-10-05T06:33:24.085Z,102246.08
2022-10-05T06:36:27.245Z,102249.44
2022-10-05T06:39:47.187Z,102250.48
2022-10-05T06:42:54.213Z,102254.59
2022-10-05T06:46:07.265Z,102257.02
2022-10-05T06:49:24.385Z,102258.97
2022-10-05T06:52:44.418Z,102255.44
2022-10-05T06:55:47.004Z,102261.05
2022-10-05T06:58:51.105Z,102263.06
2022-10-05T07:01:54.123Z,102265.08
2022-10-05T07:05:13.261Z,102264.32
2022-10-05T07:08:05.528Z,102265.70
2022-10-05T07:11:05.710Z,102266.09
2022-10-05T07:14:22.492Z,102268.29
2022-10-05T07:17:27.271Z,102273.19
2022-10-05T07:20:27.933Z,102271.05
2022-10-05T07:23:30.404Z,102269.42
2022-10-05T07:26:24.517Z,102274.41
2022-10-05T07:29:24.449Z,102277.84
2022-10-05T07:32:23.673Z,102277.92
2022-10-05T07:35:37.690Z,102280.91
2022-10-05T07:38:32.200Z,102286.30
2022-10-05T07:41:32.549Z,102290.38
2022-10-05T07:44:32.176Z,102298.44
2022-10-05T07:47:32.928Z,102305.55
2022-10-05T07:50:27.787Z,102304.69
2022-10-05T07:53:21.386Z,102309.70
2022-10-05T07:56:21.988Z,102311.98
2022-10-05T07:59:23.651Z,102311.96
2022-10-05T08:02:23.798Z,102312.88
2022-10-05T08:05:20.246Z,102314.20
2022-10-05T08:08:20.547Z,102312.27
2022-10-05T08:11:18.534Z,102314.09
2022-10-05T08:14:20.487Z,102318.27
2022-10-05T08:17:23.986Z,102319.69
2022-10-05T08:20:40.093Z,102323.95
2022-10-05T08:23:38.880Z,102325.05
2022-10-05T08:26:37.653Z,102328.45
2022-10-05T08:29:33.689Z,102334.51
2022-10-05T08:32:26.886Z,102338.59
2022-10-05T08:35:28.404Z,102338.95
2022-10-05T08:38:21.729Z,102334.48
2022-10-05T08:41:42.451Z,102335.15
2022-10-05T08:45:05.925Z,102340.96
2022-10-05T08:48:26.864Z,102345.40
2022-10-05T08:51:44.602Z,102348.10
2022-10-05T08:54:57.807Z,102345.79
2022-10-05T08:58:26.694Z,102342.38
2022-10-05T09:01:27.268Z,102349.18
2022-10-05T09:04:30.378Z,102358.32
2022-10-05T09:07:53.836Z,102363.92
2022-10-05T09:11:03.806Z,102365.27
2022-10-05T09:14:26.176Z,102365.81
2022-10-05T09:17:42.374Z,102372.81
2022-10-05T09:20:47.091Z,102375.16
2022-10-05T09:23:44.931Z,102376.14
2022-10-05T09:26:59.239Z,102376.60
2022-10-05T09:30:15.595Z,102376.42
2022-10-05T09:33:42.610Z,102376.09
2022-10-05T09:37:11.692Z,102371.97
2022-10-05T09:40:40.606Z,102367.36
2022-10-05T09:44:00.031Z,102369.78
2022-10-05T09:47:11.544Z,102370.83
2022-10-05T09:50:20.734Z,102368.82
2022-10-05T09:53:38.590Z,102369.38
2022-10-05T09:57:04.219Z,102369.52
2022-10-05T10:00:16.555Z,102367.84
2022-10-05T10:03:27.499Z,102364.97
2022-10-05T10:06:26.278Z,102367.30
2022-10-05T10:09:29.699Z,102370.38
2022-10-05T10:12:35.245Z,102367.73
2022-10-05T10:15:52.901Z,102365.64
2022-10-05T10:19:07.875Z,102368.27
2022-10-05T10:22:22.362Z,102366.65
2022-10-05T10:25:29.803Z,102364.89
2022-10-05T10:29:10.023Z,102363.45
2022-10-05T10:32:34.520Z,102363.78
2022-10-05T10:35:35.373Z,102362.91
2022-10-05T10:38:58.696Z,102363.05
2022-10-05T10:42:05.230Z,102363.96
2022-10-05T10:45:19.957Z,102364.00
2022-10-05T10:48:33.758Z,102369.83
2022-10-05T10:51:50.243Z,102371.05
2022-10-05T10:55:00.140Z,102369.74
2022-10-05T10:58:22.802Z,102366.44
2022-10-05T11:01:34.074Z,102364.52
2022-10-05T11:04:56.269Z,102364.89
2022-10-05T11:08:17.386Z,102361.37
2022-10-05T11:11:20.634Z,102361.36
2022-10-05T11:14:51.736Z,102357.53
2022-10-05T11:17:59.407Z,102358.08
2022-10-05T11:21:21.773Z,102354.92
2022-10-05T11:24:41.076Z,102349.14
2022-10-05T11:28:01.106Z,102341.42
2022-10-05T11:31:13.855Z,102338.71
2022-10-05T11:34:26.604Z,102337.11
2022-10-05T11:37:58.998Z,102335.33
2022-10-05T11:41:15.156Z,102333.13
2022-10-05T11:44:29.089Z,102332.20
2022-10-05T11:47:25.645Z,102332.46
2022-10-05T11:50:22.304Z,102336.25
2022-10-05T11:53:19.705Z,102333.57
2022-10-05T11:56:21.997Z,102329.56
2022-10-05T11:59:20.929Z,102330.57
2022-10-05T12:02:41.392Z,102329.54
2022-10-05T12:05:39.471Z,102326.24
2022-10-05T12:08:40.885Z,102323.23
2022-10-05T12:11:47.675Z,102319.66
2022-10-05T12:14:48.825Z,102319.77
2022-10-05T12:17:44.042Z,102318.92
2022-10-05T12:20:39.917Z,102320.50
2022-10-05T12:23:37.278Z,102318.48
2022-10-05T12:26:32.396Z,102316.86
2022-10-05T12:29:28.662Z,102311.73
2022-10-05T12:32:24.115Z,102309.42
2022-10-05T12:35:43.559Z,102309.99
2022-10-05T12:38:40.073Z,102307.65
2022-10-05T12:41:36.686Z,102310.18
2022-10-05T12:44:43.957Z,102312.45
2022-10-05T12:47:43.147Z,102312.42
2022-10-05T12:50:40.271Z,102318.10
2022-10-05T12:53:43.829Z,102318.94
2022-10-05T12:56:43.217Z,102318.92
2022-10-05T12:59:43.737Z,102319.20
2022-10-05T13:02:42.392Z,102317.68
2022-10-05T13:05:38.787Z,102317.14
2022-10-05T13:08:39.066Z,102316.58
2022-10-05T13:11:37.346Z,102315.44
2022-10-05T13:14:46.703Z,102312.81
2022-10-05T13:17:45.836Z,102315.05
2022-10-05T13:20:44.213Z,102313.54
2022-10-05T13:23:43.663Z,102312.28
2022-10-05T13:26:37.542Z,102312.62
2022-10-05T13:29:34.417Z,102311.40
2022-10-05T13:32:29.508Z,102310.52
2022-10-05T13:35:32.634Z,102316.23
2022-10-05T13:38:36.281Z,102316.77
2022-10-05T13:41:35.223Z,102313.20
2022-10-05T13:44:33.819Z,102314.29
2022-10-05T13:47:30.396Z,102314.37
2022-10-05T13:50:23.565Z,102316.77
2022-10-05T13:53:21.600Z,102313.98
2022-10-05T13:56:22.420Z,102313.63
2022-10-05T13:59:24.634Z,102312.27
2022-10-05T14:02:21.730Z,102310.45
2022-10-05T14:05:21.117Z,102308.30
2022-10-05T14:08:18.911Z,102310.18
2022-10-05T14:11:27.612Z,102311.92
2022-10-05T14:14:26.533Z,102309.89
2022-10-05T14:17:19.324Z,102310.27
2022-10-05T14:20:23.909Z,102305.39
2022-10-05T14:23:26.032Z,102303.37
2022-10-05T14:26:34.110Z,102300.58
2022-10-05T14:29:35.260Z,102300.98
2022-10-05T14:32:27.335Z,102299.27
2022-10-05T14:35:20.797Z,102296.23
2022-10-05T14:38:22.202Z,102297.71
2022-10-05T14:41:25.253Z,102290.41
2022-10-05T14:47:25.746Z,102284.98
2022-10-05T14:50:25.405Z,102287.23
2022-10-05T14:53:21.242Z,102285.05
2022-10-05T14:56:33.821Z,102285.73
2022-10-05T14:59:46.830Z,102285.77
2022-10-05T15:03:03.709Z,102287.02
2022-10-05T15:05:58.876Z,102287.52
2022-10-05T15:09:17.423Z,102285.05
2022-10-05T15:12:08.954Z,102283.41
2022-10-05T15:15:05.971Z,102283.55
2022-10-05T15:18:00.948Z,102278.08
2022-10-05T15:20:56.904Z,102274.55
2022-10-05T15:23:53.784Z,102267.81
2022-10-05T15:26:52.822Z,102270.11
2022-10-05T15:30:00.617Z,102270.41
2022-10-05T15:33:05.326Z,102273.67
2022-10-05T15:36:20.313Z,102272.16
2022-10-05T15:39:19.717Z,102275.16
2022-10-05T15:42:15.333Z,102273.40
2022-10-05T15:45:15.218Z,102269.79
2022-10-05T15:48:09.291Z,102269.05
2022-10-05T15:51:07.230Z,102270.55
2022-10-05T15:54:17.415Z,102275.86
2022-10-05T15:57:16.557Z,102277.45
2022-10-05T16:00:13.371Z,102278.84
2022-10-05T16:03:13.249Z,102284.80
2022-10-05T16:06:29.363Z,102287.05
2022-10-05T16:09:38.727Z,102286.83
2022-10-05T16:12:47.390Z,102286.73
2022-10-05T16:15:42.964Z,102288.02
2022-10-05T16:18:57.622Z,102289.87
2022-10-05T16:21:56.589Z,102288.80
2022-10-05T16:25:03.410Z,102289.69
2022-10-05T16:28:08.175Z,102291.98
2022-10-05T16:31:04.012Z,102294.02
2022-10-05T16:34:06.659Z,102290.30
2022-10-05T16:37:05.014Z,102292.67
2022-10-05T16:40:00.886Z,102294.65
2022-10-05T16:43:02.595Z,102299.84
2022-10-05T16:46:04.527Z,102298.86
2022-10-05T16:49:04.290Z,102300.10
2022-10-05T16:52:00.868Z,102302.05
2022-10-05T16:54:54.939Z,102305.11
2022-10-05T16:57:52.602Z,102312.58
2022-10-05T17:01:00.878Z,102318.51
2022-10-05T17:04:05.642Z,102318.54
2022-10-05T17:07:17.157Z,102317.25
2022-10-05T17:10:27.867Z,102319.51
2022-10-05T17:13:36.493Z,102316.08
2022-10-05T17:16:37.561Z,102318.15
2022-10-05T17:22:30.347Z,102327.55
2022-10-05T17:25:29.159Z,102329.48
2022-10-05T17:28:37.115Z,102328.40
2022-10-05T17:31:27.692Z,102327.25
2022-10-05T17:34:29.902Z,102332.26
2022-10-05T17:37:35.568Z,102329.73
2022-10-05T17:40:38.975Z,102331.29
2022-10-05T17:43:30.796Z,102333.23
2022-10-05T17:46:40.246Z,102334.39
2022-10-05T17:50:17.572Z,102336.88
2022-10-05T17:53:49.246Z,102334.45
2022-10-05T17:57:19.334Z,102335.83
2022-10-05T18:00:50.345Z,102340.24
2022-10-05T18:03:43.056Z,102343.79
2022-10-05T18:06:38.340Z,102349.91
2022-10-05T18:09:52.292Z,102351.66
2022-10-05T18:12:51.677Z,102355.17
2022-10-05T18:15:51.652Z,102353.02
2022-10-05T18:18:59.377Z,102354.06
2022-10-05T18:22:05.996Z,102352.29
2022-10-05T18:25:05.968Z,102352.44
2022-10-05T18:28:15.008Z,102354.71
2022-10-05T18:31:23.653Z,102356.35
2022-10-05T18:34:30.549Z,102363.98
2022-10-05T18:37:31.733Z,102365.02
2022-10-05T18:40:43.662Z,102367.44
2022-10-05T18:43:41.173Z,102364.37
2022-10-05T18:46:43.949Z,102365.76
2022-10-05T18:49:49.958Z,102370.33
2022-10-05T18:52:51.678Z,102369.41
2022-10-05T18:55:47.364Z,102375.78
2022-10-05T18:58:44.093Z,102379.45
2022-10-05T19:01:52.322Z,102384.55
2022-10-05T19:04:54.816Z,102381.59
2022-10-05T19:07:59.472Z,102380.08
2022-10-05T19:10:56.548Z,102384.98
2022-10-05T19:13:54.899Z,102385.99
2022-10-05T19:16:55.873Z,102389.64
2022-10-05T19:20:04.267Z,102391.25
2022-10-05T19:23:15.394Z,102391.71
2022-10-05T19:26:15.284Z,102393.11
2022-10-05T19:29:16.133Z,102394.14
2022-10-05T19:32:17.675Z,102393.13
2022-10-05T19:35:18.318Z,102392.88
2022-10-05T19:38:22.840Z,102392.38
2022-10-05T19:41:18.577Z,102394.09
2022-10-05T19:44:29.652Z,102393.27
2022-10-05T19:47:30.911Z,102395.62
2022-10-05T19:50:29.798Z,102395.31
2022-10-05T19:53:27.898Z,102398.48
2022-10-05T19:56:25.247Z,102397.59
2022-10-05T19:59:19.439Z,102398.41
2022-10-05T20:02:13.145Z,102398.88
2022-10-05T20:05:10.102Z,102399.11
2022-10-05T20:08:01.469Z,102405.86
2022-10-05T20:11:09.507Z,102412.95
2022-10-05T20:14:20.166Z,102412.97
2022-10-05T20:17:46.790Z,102413.41
2022-10-05T20:20:45.808Z,102414.31
2022-10-05T20:23:38.863Z,102416.90
2022-10-05T20:27:01.145Z,102416.46
2022-10-05T20:29:51.856Z,102412.94
2022-10-05T20:32:42.186Z,102414.04
2022-10-05T20:35:32.405Z,102415.44
2022-10-05T20:38:23.016Z,102416.17
2022-10-05T20:41:13.827Z,102419.77
2022-10-05T20:44:03.620Z,102422.82
2022-10-05T20:46:55.780Z,102424.31
2022-10-05T20:49:46.712Z,102424.73
2022-10-05T20:52:37.879Z,102428.33
2022-10-05T20:55:31.502Z,102427.42
2022-10-05T20:58:21.879Z,102430.70
2022-10-05T21:01:20.238Z,102427.17
2022-10-05T21:04:10.367Z,102428.75
2022-10-05T21:07:01.141Z,102428.69
2022-10-05T21:09:51.635Z,102427.52
2022-10-05T21:12:42.211Z,102427.65
2022-10-05T21:15:32.642Z,102427.30
2022-10-05T21:18:22.994Z,102426.77
2022-10-05T21:21:13.215Z,102426.66
2022-10-05T21:24:02.986Z,102429.45
2022-10-05T21:26:53.629Z,102430.85
2022-10-05T21:29:44.236Z,102432.47
2022-10-05T21:32:34.166Z,102429.53
2022-10-05T21:35:24.331Z,102427.19
2022-10-05T21:38:14.341Z,102427.50
2022-10-05T21:41:04.952Z,102426.63
2022-10-05T21:43:55.509Z,102429.30
2022-10-05T21:46:45.934Z,102427.36
2022-10-05T21:49:36.960Z,102426.02
2022-10-05T21:52:27.371Z,102425.19
2022-10-05T21:55:18.015Z,102425.55
2022-10-05T21:58:08.606Z,102427.59
2022-10-05T22:00:58.690Z,102429.77
2022-10-05T22:03:48.310Z,102427.52
2022-10-05T22:06:38.663Z,102424.98
2022-10-05T22:09:28.549Z,102423.41
2022-10-05T22:12:20.292Z,102418.42
2022-10-05T22:15:12.335Z,102417.23
2022-10-05T22:18:02.722Z,102414.56
2022-10-05T22:20:54.213Z,102415.92
2022-10-05T22:23:46.160Z,102414.63
2022-10-05T22:26:36.235Z,102415.92
2022-10-05T22:29:26.600Z,102419.26
2022-10-05T22:32:17.606Z,102416.28
2022-10-05T22:35:11.780Z,102414.71
2022-10-05T22:38:01.887Z,102413.08
2022-10-05T22:40:52.162Z,102414.46
2022-10-05T22:43:42.902Z,102414.65
2022-10-05T22:46:33.153Z,102412.42
2022-10-05T22:49:23.261Z,102409.86
2022-10-05T22:52:13.272Z,102402.45
2022-10-05T22:55:03.725Z,102399.94
2022-10-05T22:57:53.607Z,102398.60
2022-10-05T23:00:59.095Z,102395.19
2022-10-05T23:03:49.791Z,102390.29
2022-10-05T23:06:39.638Z,102388.52
2022-10-05T23:09:29.720Z,102384.98
2022-10-05T23:12:19.952Z,102383.94
2022-10-05T23:15:12.305Z,102381.25
2022-10-05T23:18:02.268Z,102379.55
2022-10-05T23:20:57.440Z,102381.70
2022-10-05T23:23:51.181Z,102382.95
2022-10-05T23:26:41.409Z,102381.75
2022-10-05T23:29:31.641Z,102375.21
2022-10-05T23:32:22.029Z,102371.54
2022-10-05T23:35:13.634Z,102369.27
2022-10-05T23:38:03.794Z,102372.02
2022-10-05T23:40:53.731Z,102375.36
2022-10-05T23:43:44.604Z,102379.16
2022-10-05T23:46:34.481Z,102379.55
2022-10-05T23:49:24.243Z,102382.25
2022-10-05T23:52:14.690Z,102381.85
2022-10-05T23:55:05.136Z,102382.23
2022-10-05T23:57:55.131Z,102383.70
